createdAt,value
2023-02-13T00:00:48.986Z,81.60
2023-02-13T00:05:54.591Z,81.62
2023-02-13T00:11:01.923Z,81.63
2023-02-13T00:16:11.243Z,81.58
2023-02-13T00:21:18.387Z,81.66
2023-02-13T00:26:25.612Z,81.72
2023-02-13T00:31:32.870Z,81.61
2023-02-13T00:36:40.119Z,81.60
2023-02-13T00:41:47.219Z,81.58
2023-02-13T00:46:54.458Z,81.49
2023-02-13T00:52:01.590Z,81.57
2023-02-13T00:57:08.826Z,81.71
2023-02-13T01:02:15.933Z,81.57
2023-02-13T01:07:23.100Z,81.66
2023-02-13T01:12:30.402Z,81.63
2023-02-13T01:17:39.870Z,81.61
2023-02-13T01:22:45.819Z,81.57
2023-02-13T01:27:53.114Z,81.71
2023-02-13T01:33:01.314Z,81.61
2023-02-13T01:38:08.509Z,81.79
2023-02-13T01:43:15.768Z,81.76
2023-02-13T01:48:26.049Z,81.63
2023-02-13T01:53:37.116Z,81.60
2023-02-13T01:58:47.848Z,81.53
2023-02-13T02:03:59.914Z,81.56
2023-02-13T02:09:16.221Z,81.64
2023-02-13T02:14:23.506Z,81.63
2023-02-13T02:19:39.238Z,81.45
2023-02-13T02:25:05.460Z,81.49
2023-02-13T02:30:35.826Z,81.52
2023-02-13T02:35:53.953Z,81.67
2023-02-13T02:41:08.726Z,81.51
2023-02-13T02:46:26.590Z,81.44
2023-02-13T02:51:43.827Z,81.43
2023-02-13T02:56:52.982Z,81.49
2023-02-13T03:02:24.981Z,81.60
2023-02-13T03:07:33.241Z,81.48
2023-02-13T03:13:02.809Z,81.49
2023-02-13T03:18:28.321Z,81.46
2023-02-13T03:23:49.518Z,81.42
2023-02-13T03:29:22.659Z,81.45
2023-02-13T03:34:56.170Z,81.54
2023-02-13T03:40:08.570Z,81.43
2023-02-13T03:45:37.714Z,81.51
2023-02-13T03:50:46.629Z,81.46
2023-02-13T03:56:12.599Z,81.48
2023-02-13T04:01:21.910Z,81.39
2023-02-13T04:06:33.363Z,81.41
2023-02-13T04:11:44.804Z,81.42
2023-02-13T04:16:57.535Z,81.33
2023-02-13T04:22:04.855Z,81.42
2023-02-13T04:27:14.502Z,81.38
2023-02-13T04:32:21.676Z,81.31
2023-02-13T04:37:28.883Z,81.43
2023-02-13T04:42:36.103Z,81.45
2023-02-13T04:47:43.552Z,81.51
2023-02-13T04:52:51.999Z,81.37
2023-02-13T04:57:59.609Z,81.40
2023-02-13T05:03:09.909Z,81.59
2023-02-13T05:08:17.019Z,81.56
2023-02-13T05:13:24.196Z,81.56
2023-02-13T05:18:31.707Z,81.47
2023-02-13T05:23:39.011Z,81.36
2023-02-13T05:29:04.068Z,81.42
2023-02-13T05:34:11.300Z,81.44
2023-02-13T05:39:18.805Z,81.42
2023-02-13T05:44:26.050Z,81.52
2023-02-13T05:49:33.162Z,81.62
2023-02-13T05:54:40.356Z,81.54
2023-02-13T05:59:47.549Z,81.41
2023-02-13T06:04:54.653Z,81.43
2023-02-13T06:10:01.780Z,81.33
2023-02-13T06:15:10.773Z,81.35
2023-02-13T06:20:18.186Z,81.30
2023-02-13T06:25:25.775Z,81.38
2023-02-13T06:30:33.702Z,81.24
2023-02-13T06:35:40.835Z,81.32
2023-02-13T06:40:48.686Z,81.23
2023-02-13T06:45:54.680Z,81.24
2023-02-13T06:51:03.152Z,81.41
2023-02-13T06:56:11.492Z,81.36
2023-02-13T07:01:18.745Z,81.24
2023-02-13T07:06:25.902Z,81.26
2023-02-13T07:11:33.454Z,81.27
2023-02-13T07:16:40.584Z,81.24
2023-02-13T07:21:47.713Z,81.15
2023-02-13T07:26:55.656Z,81.22
2023-02-13T07:32:03.310Z,81.32
2023-02-13T07:37:11.765Z,81.29
2023-02-13T07:42:19.034Z,81.21
2023-02-13T07:47:26.233Z,81.14
2023-02-13T07:52:33.778Z,81.13
2023-02-13T07:57:41.031Z,81.01
2023-02-13T08:02:48.698Z,80.98
2023-02-13T08:07:56.375Z,81.10
2023-02-13T08:13:03.812Z,81.10
2023-02-13T08:18:11.494Z,81.10
2023-02-13T08:23:18.854Z,80.88
2023-02-13T08:28:26.147Z,80.87
2023-02-13T08:33:33.398Z,80.92
2023-02-13T08:43:54.991Z,80.71
2023-02-13T08:49:02.189Z,80.74
2023-02-13T08:54:09.512Z,80.79
2023-02-13T08:59:16.770Z,80.81
2023-02-13T09:04:24.029Z,80.67
2023-02-13T09:09:31.238Z,80.62
2023-02-13T09:14:39.468Z,80.65
2023-02-13T09:19:46.972Z,80.60
2023-02-13T09:24:54.140Z,80.70
2023-02-13T09:30:01.348Z,80.55
2023-02-13T09:35:09.513Z,80.58
2023-02-13T09:40:25.603Z,80.58
2023-02-13T09:45:32.904Z,80.50
2023-02-13T09:50:40.204Z,80.39
2023-02-13T09:55:53.870Z,80.33
2023-02-13T10:01:05.329Z,80.31
2023-02-13T10:06:21.287Z,80.35
2023-02-13T10:11:44.218Z,80.26
2023-02-13T10:16:56.351Z,80.21
2023-02-13T10:22:11.469Z,80.17
2023-02-13T10:27:24.499Z,80.20
2023-02-13T10:32:40.536Z,80.09
2023-02-13T10:37:51.343Z,80.03
2023-02-13T10:43:09.523Z,80.01
2023-02-13T10:48:35.878Z,79.99
2023-02-13T10:53:57.237Z,79.85
2023-02-13T10:59:25.345Z,79.94
2023-02-13T11:04:33.580Z,79.68
2023-02-13T11:09:45.320Z,79.61
2023-02-13T11:15:00.187Z,79.64
2023-02-13T11:20:24.591Z,79.52
2023-02-13T11:25:32.159Z,79.42
2023-02-13T11:30:40.426Z,79.37
2023-02-13T11:35:49.280Z,79.41
2023-02-13T11:41:10.445Z,79.28
2023-02-13T11:46:21.960Z,79.19
2023-02-13T11:51:49.389Z,79.16
2023-02-13T11:57:04.390Z,79.18
2023-02-13T12:02:21.198Z,79.03
2023-02-13T12:07:31.419Z,78.85
2023-02-13T12:12:45.930Z,78.95
2023-02-13T12:18:05.398Z,78.97
2023-02-13T12:23:25.995Z,78.82
2023-02-13T12:28:44.372Z,78.68
2023-02-13T12:34:03.666Z,78.74
2023-02-13T12:39:26.457Z,78.66
2023-02-13T12:44:55.782Z,78.58
2023-02-13T12:50:25.206Z,78.64
2023-02-13T12:55:43.593Z,78.55
2023-02-13T13:00:57.734Z,78.48
2023-02-13T13:06:20.450Z,78.45
2023-02-13T13:11:43.198Z,78.44
2023-02-13T13:17:03.202Z,78.40
2023-02-13T13:22:19.793Z,78.23
2023-02-13T13:27:31.463Z,78.19
2023-02-13T13:32:41.769Z,78.18
2023-02-13T13:38:02.762Z,78.09
2023-02-13T13:43:21.423Z,78.14
2023-02-13T13:49:10.547Z,78.01
2023-02-13T13:54:37.279Z,77.96
2023-02-13T14:00:26.812Z,77.93
2023-02-13T14:05:35.657Z,77.74
2023-02-13T14:11:26.953Z,77.66
2023-02-13T14:16:46.358Z,77.68
2023-02-13T14:21:55.386Z,77.44
2023-02-13T14:27:06.226Z,77.38
2023-02-13T14:32:24.030Z,77.24
2023-02-13T14:37:40.299Z,77.19
2023-02-13T14:42:52.847Z,77.18
2023-02-13T14:48:06.205Z,77.09
2023-02-13T14:53:23.583Z,76.97
2023-02-13T14:58:35.060Z,76.98
2023-02-13T15:03:49.541Z,76.95
2023-02-13T15:09:01.146Z,76.81
2023-02-13T15:14:34.107Z,76.77
2023-02-13T15:19:50.062Z,76.66
2023-02-13T15:24:58.155Z,76.66
2023-02-13T15:30:20.527Z,76.70
2023-02-13T15:35:29.761Z,76.65
2023-02-13T15:40:43.114Z,76.55
2023-02-13T15:45:50.441Z,76.59
2023-02-13T15:50:58.077Z,76.44
2023-02-13T15:56:07.685Z,76.25
2023-02-13T16:01:16.125Z,76.20
2023-02-13T16:06:38.972Z,76.12
2023-02-13T16:11:48.901Z,76.23
2023-02-13T16:17:17.624Z,76.23
2023-02-13T16:22:46.710Z,76.15
2023-02-13T16:27:56.787Z,76.31
2023-02-13T16:33:34.296Z,76.37
2023-02-13T16:38:46.547Z,76.25
2023-02-13T16:43:56.223Z,76.27
2023-02-13T16:49:16.566Z,76.23
2023-02-13T16:54:29.827Z,76.13
2023-02-13T16:59:50.388Z,76.11
2023-02-13T17:05:03.329Z,76.21
2023-02-13T17:10:21.002Z,76.13
2023-02-13T17:15:30.796Z,76.06
2023-02-13T17:20:39.177Z,76.06
2023-02-13T17:25:48.501Z,76.18
2023-02-13T17:30:59.953Z,76.23
2023-02-13T17:36:08.635Z,76.30
2023-02-13T17:41:17.370Z,76.25
2023-02-13T17:46:24.658Z,76.25
2023-02-13T17:51:32.832Z,76.30
2023-02-13T17:56:40.190Z,76.26
2023-02-13T18:01:47.946Z,76.24
2023-02-13T18:06:57.122Z,76.26
2023-02-13T18:12:05.942Z,76.18
2023-02-13T18:17:13.851Z,76.17
2023-02-13T18:22:21.201Z,76.32
2023-02-13T18:27:28.516Z,76.31
2023-02-13T18:32:35.890Z,76.28
2023-02-13T18:37:43.213Z,76.22
2023-02-13T18:42:52.296Z,76.19
2023-02-13T18:48:01.323Z,76.20
2023-02-13T18:53:08.721Z,76.21
2023-02-13T18:58:17.178Z,76.21
2023-02-13T19:03:24.366Z,76.27
2023-02-13T19:08:31.628Z,76.10
2023-02-13T19:13:43.050Z,75.99
2023-02-13T19:18:55.925Z,76.04
2023-02-13T19:24:05.095Z,76.12
2023-02-13T19:29:12.378Z,76.20
2023-02-13T19:34:19.677Z,76.13
2023-02-13T19:39:27.349Z,76.14
2023-02-13T19:44:34.357Z,76.16
2023-02-13T19:49:41.596Z,76.11
2023-02-13T19:54:50.718Z,76.00
2023-02-13T20:00:02.032Z,76.04
2023-02-13T20:05:21.807Z,76.05
2023-02-13T20:10:29.299Z,76.09
2023-02-13T20:15:40.007Z,76.12
2023-02-13T20:21:01.586Z,76.22
2023-02-13T20:26:16.085Z,76.18
2023-02-13T20:31:24.312Z,76.21
2023-02-13T20:36:33.029Z,76.30
2023-02-13T20:41:40.421Z,76.47
2023-02-13T20:46:48.142Z,76.31
2023-02-13T20:51:55.289Z,76.35
2023-02-13T20:57:02.471Z,76.29
2023-02-13T21:02:11.024Z,76.36
2023-02-13T21:07:18.259Z,76.29
2023-02-13T21:12:26.624Z,76.24
2023-02-13T21:17:35.448Z,76.27
2023-02-13T21:22:48.543Z,76.42
2023-02-13T21:27:56.014Z,76.50
2023-02-13T21:33:03.496Z,76.42
2023-02-13T21:38:10.912Z,76.48
2023-02-13T21:43:18.036Z,76.41
2023-02-13T21:48:25.259Z,76.61
2023-02-13T21:53:33.909Z,76.63
2023-02-13T21:58:42.454Z,76.64
2023-02-13T22:03:50.440Z,76.63
2023-02-13T22:08:58.971Z,76.75
2023-02-13T22:14:07.867Z,76.76
2023-02-13T22:19:16.623Z,76.74
2023-02-13T22:24:23.858Z,76.76
2023-02-13T22:29:31.015Z,76.86
2023-02-13T22:34:38.580Z,77.00
2023-02-13T22:39:45.756Z,76.98
2023-02-13T22:44:52.899Z,77.06
2023-02-13T22:50:00.453Z,77.16
2023-02-13T22:55:08.324Z,77.24
2023-02-13T23:00:16.846Z,77.28
2023-02-13T23:05:24.099Z,77.15
2023-02-13T23:10:31.501Z,77.29
2023-02-13T23:15:39.230Z,77.37
2023-02-13T23:20:46.981Z,77.48
2023-02-13T23:25:54.091Z,77.37
2023-02-13T23:31:02.236Z,77.39
2023-02-13T23:36:10.783Z,77.43
2023-02-13T23:41:18.140Z,77.48
2023-02-13T23:46:25.362Z,77.51
2023-02-13T23:51:32.624Z,77.57
2023-02-13T23:56:39.840Z,77.57
